CheckWX is a tool to help pilots better visualize weather data.  It is not intended as a substitute for an official pre-flight weather briefing.

16:38:19 UTC

SLJO METAR
San Joaquín Airport
San Joaquín, Bolivia
Current

38 mins ago

SLJO 171600Z 36004KT 9999 SCT015 BKN080 29/22 Q1013
Observed
Oct-17 @ 16:00 UTC
Wind
  • 360° at 4 KTS
Visibility
10,000+ meters
Flight Rules
VFR
Cloud Levels
  • Scattered at 1,500' AGL
  • Broken at 8,000' AGL
Temperature
29°C / 84°F
Dewpoint
22°C / 72°F
Heat Index
32°C / 89°F
Humidity
66%
Altimeter
29.91" Hg
Pressure
1012.92 hPa
Previous

2 hours ago

SLJO 171500Z 36004KT 9999 SCT015 BKN080 28/22 Q1014
Observed
Oct-17 @ 15:00 UTC
Wind
  • 360° at 4 KTS
Visibility
10,000+ meters
Flight Rules
VFR
Cloud Levels
  • Scattered at 1,500' AGL
  • Broken at 8,000' AGL
Temperature
28°C / 82°F
Dewpoint
22°C / 72°F
Heat Index
30°C / 86°F
Humidity
70%
Altimeter
29.94" Hg
Pressure
1013.92 hPa
Previous

3 hours ago

SLJO 171400Z 34004KT 9999 SCT015 BKN200 26/22 Q1014
Observed
Oct-17 @ 14:00 UTC
Wind
  • 340° at 4 KTS
Visibility
10,000+ meters
Flight Rules
VFR
Cloud Levels
  • Scattered at 1,500' AGL
  • Broken at 20,000' AGL
Temperature
26°C / 79°F
Dewpoint
22°C / 72°F
Humidity
79%
Altimeter
29.94" Hg
Pressure
1013.92 hPa